<?xml version='1.0' encoding='UTF-8'?>
<gpx version="1.1" creator="https://www.komoot.de" xmlns="http://www.topografix.com/GPX/1/1" xmlns:xsi="http://www.w3.org/2001/XMLSchema-instance" xsi:schemaLocation="http://www.topografix.com/GPX/1/1 http://www.topografix.com/GPX/1/1/gpx.xsd">
  <metadata>
    <name>10km_version_27_08_2026</name>
    <author>
      <link href="https://www.komoot.de">
        <text>komoot</text>
        <type>text/html</type>
      </link>
    </author>
  </metadata>
  <trk>
    <name>10km_version_27_08_2026</name>
    <type>jogging</type>
    <trkseg>
      <trkpt lat="50.657719" lon="5.569167">
        <ele>180.192995</ele>
        <time>2026-08-27T16:39:29.033Z</time>
      </trkpt>
      <trkpt lat="50.657849" lon="5.568983">
        <ele>180.192995</ele>
        <time>2026-08-27T16:39:36.594Z</time>
      </trkpt>
      <trkpt lat="50.659060" lon="5.567285">
        <ele>181.035301</ele>
        <time>2026-08-27T16:40:48.188Z</time>
      </trkpt>
      <trkpt lat="50.659181" lon="5.567084">
        <ele>181.200564</ele>
        <time>2026-08-27T16:40:55.700Z</time>
      </trkpt>
      <trkpt lat="50.659351" lon="5.566851">
        <ele>181.412368</ele>
        <time>2026-08-27T16:41:05.229Z</time>
      </trkpt>
      <trkpt lat="50.659371" lon="5.566682">
        <ele>181.514868</ele>
        <time>2026-08-27T16:41:09.755Z</time>
      </trkpt>
      <trkpt lat="50.658901" lon="5.566131">
        <ele>181.548647</ele>
        <time>2026-08-27T16:41:33.491Z</time>
      </trkpt>
      <trkpt lat="50.658901" lon="5.565990">
        <ele>181.392598</ele>
        <time>2026-08-27T16:41:37.064Z</time>
      </trkpt>
      <trkpt lat="50.658836" lon="5.565903">
        <ele>181.243776</ele>
        <time>2026-08-27T16:41:40.459Z</time>
      </trkpt>
      <trkpt lat="50.658782" lon="5.565635">
        <ele>180.932551</ele>
        <time>2026-08-27T16:41:47.519Z</time>
      </trkpt>
      <trkpt lat="50.658752" lon="5.565601">
        <ele>180.868061</ele>
        <time>2026-08-27T16:41:48.971Z</time>
      </trkpt>
      <trkpt lat="50.658627" lon="5.565332">
        <ele>180.498935</ele>
        <time>2026-08-27T16:41:57.225Z</time>
      </trkpt>
      <trkpt lat="50.658463" lon="5.565036">
        <ele>180.063858</ele>
        <time>2026-08-27T16:42:06.909Z</time>
      </trkpt>
      <trkpt lat="50.658398" lon="5.564920">
        <ele>179.892514</ele>
        <time>2026-08-27T16:42:10.698Z</time>
      </trkpt>
      <trkpt lat="50.658276" lon="5.564764">
        <ele>179.618338</ele>
        <time>2026-08-27T16:42:16.827Z</time>
      </trkpt>
      <trkpt lat="50.658092" lon="5.564597">
        <ele>179.247733</ele>
        <time>2026-08-27T16:42:25.059Z</time>
      </trkpt>
      <trkpt lat="50.657760" lon="5.564303">
        <ele>178.582408</ele>
        <time>2026-08-27T16:42:39.800Z</time>
      </trkpt>
      <trkpt lat="50.656871" lon="5.563528">
        <ele>176.802204</ele>
        <time>2026-08-27T16:43:19.618Z</time>
      </trkpt>
      <trkpt lat="50.656097" lon="5.562846">
        <ele>175.395343</ele>
        <time>2026-08-27T16:43:54.818Z</time>
      </trkpt>
      <trkpt lat="50.655926" lon="5.562772">
        <ele>175.217421</ele>
        <time>2026-08-27T16:44:01.892Z</time>
      </trkpt>
      <trkpt lat="50.655676" lon="5.562719">
        <ele>174.964314</ele>
        <time>2026-08-27T16:44:11.987Z</time>
      </trkpt>
      <trkpt lat="50.655625" lon="5.562711">
        <ele>174.912888</ele>
        <time>2026-08-27T16:44:14.004Z</time>
      </trkpt>
      <trkpt lat="50.654735" lon="5.562548">
        <ele>174.013860</ele>
        <time>2026-08-27T16:44:49.684Z</time>
      </trkpt>
      <trkpt lat="50.654484" lon="5.562502">
        <ele>173.821530</ele>
        <time>2026-08-27T16:44:59.966Z</time>
      </trkpt>
      <trkpt lat="50.653901" lon="5.562396">
        <ele>174.562474</ele>
        <time>2026-08-27T16:45:24.343Z</time>
      </trkpt>
      <trkpt lat="50.653893" lon="5.562288">
        <ele>174.649512</ele>
        <time>2026-08-27T16:45:27.298Z</time>
      </trkpt>
      <trkpt lat="50.653859" lon="5.562232">
        <ele>174.711577</ele>
        <time>2026-08-27T16:45:29.378Z</time>
      </trkpt>
      <trkpt lat="50.653928" lon="5.562141">
        <ele>174.825135</ele>
        <time>2026-08-27T16:45:33.211Z</time>
      </trkpt>
      <trkpt lat="50.654088" lon="5.562049">
        <ele>175.040148</ele>
        <time>2026-08-27T16:45:40.588Z</time>
      </trkpt>
      <trkpt lat="50.654595" lon="5.561982">
        <ele>175.682506</ele>
        <time>2026-08-27T16:46:03.028Z</time>
      </trkpt>
      <trkpt lat="50.654686" lon="5.561970">
        <ele>175.797800</ele>
        <time>2026-08-27T16:46:07.155Z</time>
      </trkpt>
      <trkpt lat="50.654757" lon="5.561970">
        <ele>175.887441</ele>
        <time>2026-08-27T16:46:10.384Z</time>
      </trkpt>
      <trkpt lat="50.654782" lon="5.561969">
        <ele>175.919015</ele>
        <time>2026-08-27T16:46:11.488Z</time>
      </trkpt>
      <trkpt lat="50.655734" lon="5.561902">
        <ele>177.991722</ele>
        <time>2026-08-27T16:46:55.392Z</time>
      </trkpt>
      <trkpt lat="50.656099" lon="5.561887">
        <ele>178.829508</ele>
        <time>2026-08-27T16:47:12.099Z</time>
      </trkpt>
      <trkpt lat="50.656313" lon="5.561868">
        <ele>179.321313</ele>
        <time>2026-08-27T16:47:21.857Z</time>
      </trkpt>
      <trkpt lat="50.656587" lon="5.561865">
        <ele>179.950027</ele>
        <time>2026-08-27T16:47:33.978Z</time>
      </trkpt>
      <trkpt lat="50.656736" lon="5.561979">
        <ele>180.104236</ele>
        <time>2026-08-27T16:47:41.054Z</time>
      </trkpt>
      <trkpt lat="50.657020" lon="5.561552">
        <ele>179.599580</ele>
        <time>2026-08-27T16:48:00.224Z</time>
      </trkpt>
      <trkpt lat="50.657053" lon="5.561506">
        <ele>179.542935</ele>
        <time>2026-08-27T16:48:02.327Z</time>
      </trkpt>
      <trkpt lat="50.657237" lon="5.561246">
        <ele>179.225190</ele>
        <time>2026-08-27T16:48:13.971Z</time>
      </trkpt>
      <trkpt lat="50.657088" lon="5.560994">
        <ele>178.944200</ele>
        <time>2026-08-27T16:48:22.531Z</time>
      </trkpt>
      <trkpt lat="50.656923" lon="5.560714">
        <ele>178.632475</ele>
        <time>2026-08-27T16:48:31.963Z</time>
      </trkpt>
      <trkpt lat="50.656733" lon="5.560668">
        <ele>178.385225</ele>
        <time>2026-08-27T16:48:39.350Z</time>
      </trkpt>
      <trkpt lat="50.656203" lon="5.560429">
        <ele>177.359435</ele>
        <time>2026-08-27T16:49:00.355Z</time>
      </trkpt>
      <trkpt lat="50.655696" lon="5.560137">
        <ele>175.541064</ele>
        <time>2026-08-27T16:49:21.371Z</time>
      </trkpt>
      <trkpt lat="50.655670" lon="5.560129">
        <ele>175.451820</ele>
        <time>2026-08-27T16:49:22.387Z</time>
      </trkpt>
      <trkpt lat="50.655375" lon="5.560021">
        <ele>174.431553</ele>
        <time>2026-08-27T16:49:34.150Z</time>
      </trkpt>
      <trkpt lat="50.655141" lon="5.560000">
        <ele>173.641937</ele>
        <time>2026-08-27T16:49:42.994Z</time>
      </trkpt>
      <trkpt lat="50.654722" lon="5.560058">
        <ele>172.224909</ele>
        <time>2026-08-27T16:49:58.614Z</time>
      </trkpt>
      <trkpt lat="50.654627" lon="5.559992">
        <ele>171.875186</ele>
        <time>2026-08-27T16:50:02.396Z</time>
      </trkpt>
      <trkpt lat="50.654539" lon="5.559853">
        <ele>171.243143</ele>
        <time>2026-08-27T16:50:06.948Z</time>
      </trkpt>
      <trkpt lat="50.654261" lon="5.559414">
        <ele>169.128257</ele>
        <time>2026-08-27T16:50:21.168Z</time>
      </trkpt>
      <trkpt lat="50.654144" lon="5.559302">
        <ele>168.392464</ele>
        <time>2026-08-27T16:50:26.092Z</time>
      </trkpt>
      <trkpt lat="50.654046" lon="5.559234">
        <ele>167.816870</ele>
        <time>2026-08-27T16:50:29.915Z</time>
      </trkpt>
      <trkpt lat="50.653853" lon="5.559211">
        <ele>166.776310</ele>
        <time>2026-08-27T16:50:36.792Z</time>
      </trkpt>
      <trkpt lat="50.653710" lon="5.559286">
        <ele>165.966128</ele>
        <time>2026-08-27T16:50:42.110Z</time>
      </trkpt>
      <trkpt lat="50.652876" lon="5.560200">
        <ele>160.809454</ele>
        <time>2026-08-27T16:51:19.090Z</time>
      </trkpt>
      <trkpt lat="50.652683" lon="5.560412">
        <ele>159.779302</ele>
        <time>2026-08-27T16:51:27.940Z</time>
      </trkpt>
      <trkpt lat="50.652503" lon="5.560525">
        <ele>158.930740</ele>
        <time>2026-08-27T16:51:35.205Z</time>
      </trkpt>
      <trkpt lat="50.652536" lon="5.560706">
        <ele>158.407727</ele>
        <time>2026-08-27T16:51:39.675Z</time>
      </trkpt>
      <trkpt lat="50.652334" lon="5.560710">
        <ele>157.522891</ele>
        <time>2026-08-27T16:51:47.257Z</time>
      </trkpt>
      <trkpt lat="50.652278" lon="5.560976">
        <ele>156.744537</ele>
        <time>2026-08-27T16:51:53.911Z</time>
      </trkpt>
      <trkpt lat="50.652178" lon="5.561148">
        <ele>156.096464</ele>
        <time>2026-08-27T16:51:59.456Z</time>
      </trkpt>
      <trkpt lat="50.652115" lon="5.561196">
        <ele>155.790012</ele>
        <time>2026-08-27T16:52:02.062Z</time>
      </trkpt>
      <trkpt lat="50.651944" lon="5.561194">
        <ele>155.041006</ele>
        <time>2026-08-27T16:52:08.424Z</time>
      </trkpt>
      <trkpt lat="50.651748" lon="5.560459">
        <ele>152.088929</ele>
        <time>2026-08-27T16:52:30.294Z</time>
      </trkpt>
      <trkpt lat="50.651560" lon="5.560441">
        <ele>150.840628</ele>
        <time>2026-08-27T16:52:38.304Z</time>
      </trkpt>
      <trkpt lat="50.650978" lon="5.560183">
        <ele>146.833839</ele>
        <time>2026-08-27T16:53:04.062Z</time>
      </trkpt>
      <trkpt lat="50.650831" lon="5.560311">
        <ele>145.720946</ele>
        <time>2026-08-27T16:53:11.041Z</time>
      </trkpt>
      <trkpt lat="50.650727" lon="5.560154">
        <ele>144.766805</ele>
        <time>2026-08-27T16:53:16.935Z</time>
      </trkpt>
      <trkpt lat="50.650711" lon="5.560010">
        <ele>144.152457</ele>
        <time>2026-08-27T16:53:20.634Z</time>
      </trkpt>
      <trkpt lat="50.650695" lon="5.560003">
        <ele>144.042410</ele>
        <time>2026-08-27T16:53:21.296Z</time>
      </trkpt>
      <trkpt lat="50.650702" lon="5.559208">
        <ele>140.357300</ele>
        <time>2026-08-27T16:53:40.679Z</time>
      </trkpt>
      <trkpt lat="50.650643" lon="5.559008">
        <ele>139.236158</ele>
        <time>2026-08-27T16:53:46.041Z</time>
      </trkpt>
      <trkpt lat="50.650230" lon="5.558617">
        <ele>135.374883</ele>
        <time>2026-08-27T16:54:04.629Z</time>
      </trkpt>
      <trkpt lat="50.650186" lon="5.558573">
        <ele>134.957256</ele>
        <time>2026-08-27T16:54:06.612Z</time>
      </trkpt>
      <trkpt lat="50.650126" lon="5.558511">
        <ele>134.382257</ele>
        <time>2026-08-27T16:54:09.477Z</time>
      </trkpt>
      <trkpt lat="50.650053" lon="5.558369">
        <ele>133.453110</ele>
        <time>2026-08-27T16:54:14.041Z</time>
      </trkpt>
      <trkpt lat="50.649984" lon="5.558575">
        <ele>132.268979</ele>
        <time>2026-08-27T16:54:19.064Z</time>
      </trkpt>
      <trkpt lat="50.649797" lon="5.558666">
        <ele>130.700251</ele>
        <time>2026-08-27T16:54:25.852Z</time>
      </trkpt>
      <trkpt lat="50.649639" lon="5.558869">
        <ele>129.066648</ele>
        <time>2026-08-27T16:54:33.068Z</time>
      </trkpt>
      <trkpt lat="50.649493" lon="5.558933">
        <ele>127.920055</ele>
        <time>2026-08-27T16:54:38.653Z</time>
      </trkpt>
      <trkpt lat="50.649398" lon="5.559062">
        <ele>127.845931</ele>
        <time>2026-08-27T16:54:43.416Z</time>
      </trkpt>
      <trkpt lat="50.649317" lon="5.559111">
        <ele>127.794634</ele>
        <time>2026-08-27T16:54:46.731Z</time>
      </trkpt>
      <trkpt lat="50.649346" lon="5.559196">
        <ele>127.758446</ele>
        <time>2026-08-27T16:54:49.220Z</time>
      </trkpt>
      <trkpt lat="50.649099" lon="5.560476">
        <ele>127.256822</ele>
        <time>2026-08-27T16:55:25.979Z</time>
      </trkpt>
      <trkpt lat="50.649029" lon="5.560838">
        <ele>127.114932</ele>
        <time>2026-08-27T16:55:36.550Z</time>
      </trkpt>
      <trkpt lat="50.649081" lon="5.561049">
        <ele>127.030059</ele>
        <time>2026-08-27T16:55:42.605Z</time>
      </trkpt>
      <trkpt lat="50.649037" lon="5.561361">
        <ele>126.910227</ele>
        <time>2026-08-27T16:55:50.765Z</time>
      </trkpt>
      <trkpt lat="50.649398" lon="5.561503">
        <ele>126.419442</ele>
        <time>2026-08-27T16:56:05.549Z</time>
      </trkpt>
      <trkpt lat="50.649276" lon="5.561642">
        <ele>126.190125</ele>
        <time>2026-08-27T16:56:12.422Z</time>
      </trkpt>
      <trkpt lat="50.648922" lon="5.561706">
        <ele>125.647221</ele>
        <time>2026-08-27T16:56:28.389Z</time>
      </trkpt>
      <trkpt lat="50.648840" lon="5.561702">
        <ele>125.522222</ele>
        <time>2026-08-27T16:56:32.028Z</time>
      </trkpt>
      <trkpt lat="50.648750" lon="5.561697">
        <ele>125.385009</ele>
        <time>2026-08-27T16:56:35.972Z</time>
      </trkpt>
      <trkpt lat="50.649628" lon="5.563981">
        <ele>127.770264</ele>
        <time>2026-08-27T16:57:56.122Z</time>
      </trkpt>
      <trkpt lat="50.649715" lon="5.563918">
        <ele>128.174422</ele>
        <time>2026-08-27T16:58:01.957Z</time>
      </trkpt>
      <trkpt lat="50.650126" lon="5.563562">
        <ele>130.154026</ele>
        <time>2026-08-27T16:58:32.925Z</time>
      </trkpt>
      <trkpt lat="50.650237" lon="5.563466">
        <ele>130.688474</ele>
        <time>2026-08-27T16:58:42.410Z</time>
      </trkpt>
      <trkpt lat="50.650514" lon="5.563186">
        <ele>132.469299</ele>
        <time>2026-08-27T16:59:09.063Z</time>
      </trkpt>
      <trkpt lat="50.650661" lon="5.562950">
        <ele>134.311852</ele>
        <time>2026-08-27T16:59:27.078Z</time>
      </trkpt>
      <trkpt lat="50.650735" lon="5.562766">
        <ele>135.525406</ele>
        <time>2026-08-27T16:59:38.951Z</time>
      </trkpt>
      <trkpt lat="50.650861" lon="5.562255">
        <ele>138.579050</ele>
        <time>2026-08-27T17:00:07.945Z</time>
      </trkpt>
      <trkpt lat="50.650920" lon="5.562034">
        <ele>139.914562</ele>
        <time>2026-08-27T17:00:19.594Z</time>
      </trkpt>
      <trkpt lat="50.650971" lon="5.561889">
        <ele>140.838069</ele>
        <time>2026-08-27T17:00:27.262Z</time>
      </trkpt>
      <trkpt lat="50.651078" lon="5.561579">
        <ele>142.803855</ele>
        <time>2026-08-27T17:00:40.747Z</time>
      </trkpt>
      <trkpt lat="50.651157" lon="5.561372">
        <ele>144.149468</ele>
        <time>2026-08-27T17:00:49.679Z</time>
      </trkpt>
      <trkpt lat="50.651259" lon="5.561203">
        <ele>145.448964</ele>
        <time>2026-08-27T17:00:58.059Z</time>
      </trkpt>
      <trkpt lat="50.651356" lon="5.561278">
        <ele>146.397897</ele>
        <time>2026-08-27T17:01:04.066Z</time>
      </trkpt>
      <trkpt lat="50.651391" lon="5.561355">
        <ele>146.925560</ele>
        <time>2026-08-27T17:01:07.947Z</time>
      </trkpt>
      <trkpt lat="50.651445" lon="5.561927">
        <ele>147.312263</ele>
        <time>2026-08-27T17:01:29.054Z</time>
      </trkpt>
      <trkpt lat="50.651539" lon="5.562169">
        <ele>147.190959</ele>
        <time>2026-08-27T17:01:38.215Z</time>
      </trkpt>
      <trkpt lat="50.651909" lon="5.562972">
        <ele>146.766676</ele>
        <time>2026-08-27T17:02:07.551Z</time>
      </trkpt>
      <trkpt lat="50.651686" lon="5.563016">
        <ele>146.615172</ele>
        <time>2026-08-27T17:02:16.162Z</time>
      </trkpt>
      <trkpt lat="50.651625" lon="5.563103">
        <ele>146.559729</ele>
        <time>2026-08-27T17:02:19.275Z</time>
      </trkpt>
      <trkpt lat="50.651565" lon="5.563431">
        <ele>146.413816</ele>
        <time>2026-08-27T17:02:27.405Z</time>
      </trkpt>
      <trkpt lat="50.651621" lon="5.563914">
        <ele>145.710547</ele>
        <time>2026-08-27T17:02:38.907Z</time>
      </trkpt>
      <trkpt lat="50.651574" lon="5.563951">
        <ele>145.496467</ele>
        <time>2026-08-27T17:02:40.791Z</time>
      </trkpt>
      <trkpt lat="50.651644" lon="5.564293">
        <ele>144.567844</ele>
        <time>2026-08-27T17:02:49.007Z</time>
      </trkpt>
      <trkpt lat="50.651621" lon="5.564611">
        <ele>143.740814</ele>
        <time>2026-08-27T17:02:56.302Z</time>
      </trkpt>
      <trkpt lat="50.651602" lon="5.564620">
        <ele>143.659963</ele>
        <time>2026-08-27T17:02:57.125Z</time>
      </trkpt>
      <trkpt lat="50.651505" lon="5.564674">
        <ele>143.240743</ele>
        <time>2026-08-27T17:03:01.575Z</time>
      </trkpt>
      <trkpt lat="50.651502" lon="5.564743">
        <ele>143.062030</ele>
        <time>2026-08-27T17:03:03.197Z</time>
      </trkpt>
      <trkpt lat="50.651348" lon="5.565191">
        <ele>141.745218</ele>
        <time>2026-08-27T17:03:15.278Z</time>
      </trkpt>
      <trkpt lat="50.651367" lon="5.565614">
        <ele>140.649455</ele>
        <time>2026-08-27T17:03:25.457Z</time>
      </trkpt>
      <trkpt lat="50.651498" lon="5.566199">
        <ele>139.046318</ele>
        <time>2026-08-27T17:03:40.330Z</time>
      </trkpt>
      <trkpt lat="50.651681" lon="5.566532">
        <ele>138.126268</ele>
        <time>2026-08-27T17:03:51.061Z</time>
      </trkpt>
      <trkpt lat="50.651820" lon="5.566608">
        <ele>137.649929</ele>
        <time>2026-08-27T17:03:56.701Z</time>
      </trkpt>
      <trkpt lat="50.653167" lon="5.566906">
        <ele>133.245836</ele>
        <time>2026-08-27T17:04:48.780Z</time>
      </trkpt>
      <trkpt lat="50.653498" lon="5.566854">
        <ele>131.751878</ele>
        <time>2026-08-27T17:05:01.106Z</time>
      </trkpt>
      <trkpt lat="50.653355" lon="5.567344">
        <ele>130.172925</ele>
        <time>2026-08-27T17:05:13.582Z</time>
      </trkpt>
      <trkpt lat="50.653712" lon="5.567589">
        <ele>128.375444</ele>
        <time>2026-08-27T17:05:30.014Z</time>
      </trkpt>
      <trkpt lat="50.653171" lon="5.569100">
        <ele>125.668314</ele>
        <time>2026-08-27T17:06:10.279Z</time>
      </trkpt>
      <trkpt lat="50.653409" lon="5.569361">
        <ele>126.381467</ele>
        <time>2026-08-27T17:06:24.493Z</time>
      </trkpt>
      <trkpt lat="50.653472" lon="5.569543">
        <ele>126.704907</ele>
        <time>2026-08-27T17:06:31.225Z</time>
      </trkpt>
      <trkpt lat="50.653565" lon="5.569697">
        <ele>127.036646</ele>
        <time>2026-08-27T17:06:38.398Z</time>
      </trkpt>
      <trkpt lat="50.653672" lon="5.569941">
        <ele>127.499405</ele>
        <time>2026-08-27T17:06:49.005Z</time>
      </trkpt>
      <trkpt lat="50.653712" lon="5.570031">
        <ele>127.670844</ele>
        <time>2026-08-27T17:06:53.070Z</time>
      </trkpt>
      <trkpt lat="50.653811" lon="5.570164">
        <ele>127.990780</ele>
        <time>2026-08-27T17:07:01.004Z</time>
      </trkpt>
      <trkpt lat="50.653754" lon="5.570537">
        <ele>128.589245</ele>
        <time>2026-08-27T17:07:16.562Z</time>
      </trkpt>
      <trkpt lat="50.653935" lon="5.570279">
        <ele>129.189444</ele>
        <time>2026-08-27T17:07:30.536Z</time>
      </trkpt>
      <trkpt lat="50.653974" lon="5.570143">
        <ele>129.788762</ele>
        <time>2026-08-27T17:07:36.217Z</time>
      </trkpt>
      <trkpt lat="50.654119" lon="5.569792">
        <ele>132.001573</ele>
        <time>2026-08-27T17:07:55.395Z</time>
      </trkpt>
      <trkpt lat="50.654200" lon="5.569386">
        <ele>134.249722</ele>
        <time>2026-08-27T17:08:14.858Z</time>
      </trkpt>
      <trkpt lat="50.654268" lon="5.569806">
        <ele>136.539337</ele>
        <time>2026-08-27T17:08:31.757Z</time>
      </trkpt>
      <trkpt lat="50.654282" lon="5.569897">
        <ele>137.033944</ele>
        <time>2026-08-27T17:08:35.531Z</time>
      </trkpt>
      <trkpt lat="50.654272" lon="5.570118">
        <ele>138.204224</ele>
        <time>2026-08-27T17:08:44.311Z</time>
      </trkpt>
      <trkpt lat="50.654200" lon="5.570509">
        <ele>140.354817</ele>
        <time>2026-08-27T17:08:59.900Z</time>
      </trkpt>
      <trkpt lat="50.654226" lon="5.570757">
        <ele>141.682531</ele>
        <time>2026-08-27T17:09:08.982Z</time>
      </trkpt>
      <trkpt lat="50.654219" lon="5.571174">
        <ele>143.885879</ele>
        <time>2026-08-27T17:09:23.330Z</time>
      </trkpt>
      <trkpt lat="50.654221" lon="5.571417">
        <ele>145.162929</ele>
        <time>2026-08-27T17:09:33.631Z</time>
      </trkpt>
      <trkpt lat="50.654181" lon="5.571658">
        <ele>146.469336</ele>
        <time>2026-08-27T17:09:44.622Z</time>
      </trkpt>
      <trkpt lat="50.654130" lon="5.571714">
        <ele>146.983330</ele>
        <time>2026-08-27T17:09:49.130Z</time>
      </trkpt>
      <trkpt lat="50.653847" lon="5.571784">
        <ele>149.352741</ele>
        <time>2026-08-27T17:10:10.739Z</time>
      </trkpt>
      <trkpt lat="50.653678" lon="5.571914">
        <ele>150.907986</ele>
        <time>2026-08-27T17:10:25.401Z</time>
      </trkpt>
      <trkpt lat="50.653636" lon="5.572030">
        <ele>151.608511</ele>
        <time>2026-08-27T17:10:31.742Z</time>
      </trkpt>
      <trkpt lat="50.653650" lon="5.572197">
        <ele>152.491901</ele>
        <time>2026-08-27T17:10:39.515Z</time>
      </trkpt>
      <trkpt lat="50.653730" lon="5.572539">
        <ele>154.403563</ele>
        <time>2026-08-27T17:10:55.967Z</time>
      </trkpt>
      <trkpt lat="50.653932" lon="5.573337">
        <ele>158.909569</ele>
        <time>2026-08-27T17:11:26.339Z</time>
      </trkpt>
      <trkpt lat="50.654248" lon="5.573292">
        <ele>160.644336</ele>
        <time>2026-08-27T17:11:44.770Z</time>
      </trkpt>
      <trkpt lat="50.654555" lon="5.573326">
        <ele>162.247572</ele>
        <time>2026-08-27T17:12:01.980Z</time>
      </trkpt>
      <trkpt lat="50.654060" lon="5.573767">
        <ele>165.209163</ele>
        <time>2026-08-27T17:12:29.903Z</time>
      </trkpt>
      <trkpt lat="50.653968" lon="5.573844">
        <ele>165.751726</ele>
        <time>2026-08-27T17:12:34.927Z</time>
      </trkpt>
      <trkpt lat="50.653505" lon="5.574255">
        <ele>168.508449</ele>
        <time>2026-08-27T17:13:00.258Z</time>
      </trkpt>
      <trkpt lat="50.653366" lon="5.574342">
        <ele>168.830340</ele>
        <time>2026-08-27T17:13:07.337Z</time>
      </trkpt>
      <trkpt lat="50.653520" lon="5.574492">
        <ele>169.219934</ele>
        <time>2026-08-27T17:13:15.895Z</time>
      </trkpt>
      <trkpt lat="50.653661" lon="5.574726">
        <ele>169.660488</ele>
        <time>2026-08-27T17:13:25.513Z</time>
      </trkpt>
      <trkpt lat="50.653727" lon="5.574958">
        <ele>170.007506</ele>
        <time>2026-08-27T17:13:32.962Z</time>
      </trkpt>
      <trkpt lat="50.653856" lon="5.574979">
        <ele>170.286651</ele>
        <time>2026-08-27T17:13:38.932Z</time>
      </trkpt>
      <trkpt lat="50.653855" lon="5.575083">
        <ele>170.428594</ele>
        <time>2026-08-27T17:13:41.908Z</time>
      </trkpt>
      <trkpt lat="50.653872" lon="5.575122">
        <ele>170.493182</ele>
        <time>2026-08-27T17:13:43.258Z</time>
      </trkpt>
      <trkpt lat="50.653958" lon="5.575244">
        <ele>170.742151</ele>
        <time>2026-08-27T17:13:48.536Z</time>
      </trkpt>
      <trkpt lat="50.654542" lon="5.576019">
        <ele>172.358774</ele>
        <time>2026-08-27T17:14:21.598Z</time>
      </trkpt>
      <trkpt lat="50.654614" lon="5.576107">
        <ele>172.150691</ele>
        <time>2026-08-27T17:14:25.308Z</time>
      </trkpt>
      <trkpt lat="50.654648" lon="5.576241">
        <ele>171.941648</ele>
        <time>2026-08-27T17:14:29.015Z</time>
      </trkpt>
      <trkpt lat="50.654658" lon="5.576416">
        <ele>171.687162</ele>
        <time>2026-08-27T17:14:33.488Z</time>
      </trkpt>
      <trkpt lat="50.654701" lon="5.577590">
        <ele>169.983981</ele>
        <time>2026-08-27T17:15:02.558Z</time>
      </trkpt>
      <trkpt lat="50.654714" lon="5.577941">
        <ele>169.474749</ele>
        <time>2026-08-27T17:15:10.976Z</time>
      </trkpt>
      <trkpt lat="50.654763" lon="5.578177">
        <ele>169.115080</ele>
        <time>2026-08-27T17:15:16.896Z</time>
      </trkpt>
      <trkpt lat="50.655113" lon="5.578818">
        <ele>167.661395</ele>
        <time>2026-08-27T17:15:36.965Z</time>
      </trkpt>
      <trkpt lat="50.655147" lon="5.579008">
        <ele>167.200545</ele>
        <time>2026-08-27T17:15:41.590Z</time>
      </trkpt>
      <trkpt lat="50.655147" lon="5.579010">
        <ele>167.195876</ele>
        <time>2026-08-27T17:15:41.632Z</time>
      </trkpt>
      <trkpt lat="50.655139" lon="5.579172">
        <ele>166.816570</ele>
        <time>2026-08-27T17:15:45.454Z</time>
      </trkpt>
      <trkpt lat="50.655100" lon="5.579331">
        <ele>166.418603</ele>
        <time>2026-08-27T17:15:49.481Z</time>
      </trkpt>
      <trkpt lat="50.654974" lon="5.579499">
        <ele>165.811129</ele>
        <time>2026-08-27T17:15:55.645Z</time>
      </trkpt>
      <trkpt lat="50.654447" lon="5.579830">
        <ele>163.722548</ele>
        <time>2026-08-27T17:16:16.821Z</time>
      </trkpt>
      <trkpt lat="50.654319" lon="5.579960">
        <ele>163.162005</ele>
        <time>2026-08-27T17:16:22.577Z</time>
      </trkpt>
      <trkpt lat="50.654106" lon="5.580379">
        <ele>161.908312</ele>
        <time>2026-08-27T17:16:35.626Z</time>
      </trkpt>
      <trkpt lat="50.653943" lon="5.580797">
        <ele>160.780577</ele>
        <time>2026-08-27T17:16:47.639Z</time>
      </trkpt>
      <trkpt lat="50.653894" lon="5.581073">
        <ele>160.125090</ele>
        <time>2026-08-27T17:16:54.568Z</time>
      </trkpt>
      <trkpt lat="50.653820" lon="5.581253">
        <ele>159.634464</ele>
        <time>2026-08-27T17:16:59.755Z</time>
      </trkpt>
      <trkpt lat="50.653814" lon="5.581266">
        <ele>159.597690</ele>
        <time>2026-08-27T17:17:00.131Z</time>
      </trkpt>
      <trkpt lat="50.653685" lon="5.581381">
        <ele>159.063179</ele>
        <time>2026-08-27T17:17:05.777Z</time>
      </trkpt>
      <trkpt lat="50.653556" lon="5.581415">
        <ele>158.591398</ele>
        <time>2026-08-27T17:17:10.787Z</time>
      </trkpt>
      <trkpt lat="50.653398" lon="5.581400">
        <ele>158.020428</ele>
        <time>2026-08-27T17:17:16.854Z</time>
      </trkpt>
      <trkpt lat="50.653311" lon="5.581510">
        <ele>157.618216</ele>
        <time>2026-08-27T17:17:21.071Z</time>
      </trkpt>
      <trkpt lat="50.653005" lon="5.581897">
        <ele>156.203387</ele>
        <time>2026-08-27T17:17:35.872Z</time>
      </trkpt>
      <trkpt lat="50.652969" lon="5.581943">
        <ele>156.036261</ele>
        <time>2026-08-27T17:17:37.564Z</time>
      </trkpt>
      <trkpt lat="50.653005" lon="5.581897">
        <ele>155.869135</ele>
        <time>2026-08-27T17:17:39.340Z</time>
      </trkpt>
      <trkpt lat="50.653020" lon="5.582072">
        <ele>155.465266</ele>
        <time>2026-08-27T17:17:43.438Z</time>
      </trkpt>
      <trkpt lat="50.653110" lon="5.582165">
        <ele>155.017399</ele>
        <time>2026-08-27T17:17:47.427Z</time>
      </trkpt>
      <trkpt lat="50.653316" lon="5.582106">
        <ele>153.664672</ele>
        <time>2026-08-27T17:17:55.067Z</time>
      </trkpt>
      <trkpt lat="50.653550" lon="5.582040">
        <ele>152.128821</ele>
        <time>2026-08-27T17:18:03.546Z</time>
      </trkpt>
      <trkpt lat="50.653492" lon="5.582212">
        <ele>151.330798</ele>
        <time>2026-08-27T17:18:07.931Z</time>
      </trkpt>
      <trkpt lat="50.653470" lon="5.582278">
        <ele>151.025353</ele>
        <time>2026-08-27T17:18:09.583Z</time>
      </trkpt>
      <trkpt lat="50.653460" lon="5.582486">
        <ele>150.170872</ele>
        <time>2026-08-27T17:18:14.310Z</time>
      </trkpt>
      <trkpt lat="50.653760" lon="5.583566">
        <ele>145.340878</ele>
        <time>2026-08-27T17:18:40.555Z</time>
      </trkpt>
      <trkpt lat="50.653801" lon="5.583713">
        <ele>144.683031</ele>
        <time>2026-08-27T17:18:44.006Z</time>
      </trkpt>
      <trkpt lat="50.654016" lon="5.584387">
        <ele>141.732471</ele>
        <time>2026-08-27T17:19:00.269Z</time>
      </trkpt>
      <trkpt lat="50.654026" lon="5.584439">
        <ele>141.525962</ele>
        <time>2026-08-27T17:19:01.471Z</time>
      </trkpt>
      <trkpt lat="50.654197" lon="5.584952">
        <ele>139.323347</ele>
        <time>2026-08-27T17:19:14.690Z</time>
      </trkpt>
      <trkpt lat="50.654377" lon="5.585494">
        <ele>136.998083</ele>
        <time>2026-08-27T17:19:29.296Z</time>
      </trkpt>
      <trkpt lat="50.654442" lon="5.585576">
        <ele>136.499165</ele>
        <time>2026-08-27T17:19:32.416Z</time>
      </trkpt>
      <trkpt lat="50.654487" lon="5.585502">
        <ele>136.109490</ele>
        <time>2026-08-27T17:19:35.216Z</time>
      </trkpt>
      <trkpt lat="50.654519" lon="5.585155">
        <ele>134.776903</ele>
        <time>2026-08-27T17:19:44.740Z</time>
      </trkpt>
      <trkpt lat="50.654543" lon="5.584467">
        <ele>131.857025</ele>
        <time>2026-08-27T17:20:02.911Z</time>
      </trkpt>
      <trkpt lat="50.654566" lon="5.584278">
        <ele>130.753324</ele>
        <time>2026-08-27T17:20:07.942Z</time>
      </trkpt>
      <trkpt lat="50.654589" lon="5.584172">
        <ele>130.110798</ele>
        <time>2026-08-27T17:20:10.890Z</time>
      </trkpt>
      <trkpt lat="50.654607" lon="5.584168">
        <ele>129.946366</ele>
        <time>2026-08-27T17:20:11.630Z</time>
      </trkpt>
      <trkpt lat="50.654651" lon="5.584268">
        <ele>129.248285</ele>
        <time>2026-08-27T17:20:14.338Z</time>
      </trkpt>
      <trkpt lat="50.654683" lon="5.584278">
        <ele>128.953193</ele>
        <time>2026-08-27T17:20:15.482Z</time>
      </trkpt>
      <trkpt lat="50.654780" lon="5.584141">
        <ele>127.775391</ele>
        <time>2026-08-27T17:20:20.014Z</time>
      </trkpt>
      <trkpt lat="50.654802" lon="5.584055">
        <ele>127.243548</ele>
        <time>2026-08-27T17:20:22.071Z</time>
      </trkpt>
      <trkpt lat="50.654863" lon="5.584059">
        <ele>126.691277</ele>
        <time>2026-08-27T17:20:24.152Z</time>
      </trkpt>
      <trkpt lat="50.654942" lon="5.584107">
        <ele>125.925471</ele>
        <time>2026-08-27T17:20:27.051Z</time>
      </trkpt>
      <trkpt lat="50.654993" lon="5.584200">
        <ele>125.220281</ele>
        <time>2026-08-27T17:20:29.640Z</time>
      </trkpt>
      <trkpt lat="50.655119" lon="5.584223">
        <ele>124.072902</ele>
        <time>2026-08-27T17:20:33.830Z</time>
      </trkpt>
      <trkpt lat="50.655168" lon="5.584529">
        <ele>122.262905</ele>
        <time>2026-08-27T17:20:40.305Z</time>
      </trkpt>
      <trkpt lat="50.655295" lon="5.584940">
        <ele>119.640796</ele>
        <time>2026-08-27T17:20:49.638Z</time>
      </trkpt>
      <trkpt lat="50.655530" lon="5.585123">
        <ele>117.270080</ele>
        <time>2026-08-27T17:20:58.093Z</time>
      </trkpt>
      <trkpt lat="50.656227" lon="5.586139">
        <ele>113.153867</ele>
        <time>2026-08-27T17:21:30.820Z</time>
      </trkpt>
      <trkpt lat="50.656968" lon="5.586661">
        <ele>110.021383</ele>
        <time>2026-08-27T17:22:03.181Z</time>
      </trkpt>
      <trkpt lat="50.656992" lon="5.586613">
        <ele>109.871789</ele>
        <time>2026-08-27T17:22:04.932Z</time>
      </trkpt>
      <trkpt lat="50.657073" lon="5.586427">
        <ele>109.942921</ele>
        <time>2026-08-27T17:22:11.521Z</time>
      </trkpt>
      <trkpt lat="50.657090" lon="5.586291">
        <ele>110.574590</ele>
        <time>2026-08-27T17:22:15.677Z</time>
      </trkpt>
      <trkpt lat="50.657151" lon="5.586253">
        <ele>111.046010</ele>
        <time>2026-08-27T17:22:19.015Z</time>
      </trkpt>
      <trkpt lat="50.657200" lon="5.586072">
        <ele>111.942860</ele>
        <time>2026-08-27T17:22:25.385Z</time>
      </trkpt>
      <trkpt lat="50.657194" lon="5.584945">
        <ele>117.078641</ele>
        <time>2026-08-27T17:23:05.996Z</time>
      </trkpt>
      <trkpt lat="50.657249" lon="5.584561">
        <ele>118.872584</ele>
        <time>2026-08-27T17:23:21.967Z</time>
      </trkpt>
      <trkpt lat="50.657344" lon="5.584344">
        <ele>120.074291</ele>
        <time>2026-08-27T17:23:32.837Z</time>
      </trkpt>
      <trkpt lat="50.657609" lon="5.584031">
        <ele>122.453917</ele>
        <time>2026-08-27T17:23:54.683Z</time>
      </trkpt>
      <trkpt lat="50.657648" lon="5.583841">
        <ele>123.607884</ele>
        <time>2026-08-27T17:24:02.833Z</time>
      </trkpt>
      <trkpt lat="50.657701" lon="5.583244">
        <ele>127.100992</ele>
        <time>2026-08-27T17:24:27.443Z</time>
      </trkpt>
      <trkpt lat="50.657768" lon="5.582964">
        <ele>128.835196</ele>
        <time>2026-08-27T17:24:39.478Z</time>
      </trkpt>
      <trkpt lat="50.657865" lon="5.582756">
        <ele>130.331442</ele>
        <time>2026-08-27T17:24:49.724Z</time>
      </trkpt>
      <trkpt lat="50.657920" lon="5.582693">
        <ele>130.952726</ele>
        <time>2026-08-27T17:24:54.132Z</time>
      </trkpt>
      <trkpt lat="50.657950" lon="5.582687">
        <ele>131.229133</ele>
        <time>2026-08-27T17:24:56.166Z</time>
      </trkpt>
      <trkpt lat="50.657950" lon="5.582687">
        <ele>131.229133</ele>
        <time>2026-08-27T17:24:56.207Z</time>
      </trkpt>
      <trkpt lat="50.657950" lon="5.582687">
        <ele>131.229133</ele>
        <time>2026-08-27T17:24:56.207Z</time>
      </trkpt>
      <trkpt lat="50.657948" lon="5.582665">
        <ele>131.357916</ele>
        <time>2026-08-27T17:24:56.787Z</time>
      </trkpt>
      <trkpt lat="50.658049" lon="5.582625">
        <ele>132.309746</ele>
        <time>2026-08-27T17:25:01.078Z</time>
      </trkpt>
      <trkpt lat="50.658144" lon="5.582664">
        <ele>133.207006</ele>
        <time>2026-08-27T17:25:05.119Z</time>
      </trkpt>
      <trkpt lat="50.658235" lon="5.582672">
        <ele>134.040071</ele>
        <time>2026-08-27T17:25:08.872Z</time>
      </trkpt>
      <trkpt lat="50.658214" lon="5.582918">
        <ele>135.478382</ele>
        <time>2026-08-27T17:25:15.351Z</time>
      </trkpt>
      <trkpt lat="50.658259" lon="5.583052">
        <ele>136.357060</ele>
        <time>2026-08-27T17:25:19.311Z</time>
      </trkpt>
      <trkpt lat="50.658310" lon="5.583177">
        <ele>137.218413</ele>
        <time>2026-08-27T17:25:23.190Z</time>
      </trkpt>
      <trkpt lat="50.658362" lon="5.583312">
        <ele>138.133745</ele>
        <time>2026-08-27T17:25:27.316Z</time>
      </trkpt>
      <trkpt lat="50.658388" lon="5.583481">
        <ele>139.141302</ele>
        <time>2026-08-27T17:25:31.854Z</time>
      </trkpt>
      <trkpt lat="50.658392" lon="5.583655">
        <ele>140.149633</ele>
        <time>2026-08-27T17:25:36.398Z</time>
      </trkpt>
      <trkpt lat="50.658373" lon="5.583801">
        <ele>141.012779</ele>
        <time>2026-08-27T17:25:40.289Z</time>
      </trkpt>
      <trkpt lat="50.658349" lon="5.583955">
        <ele>141.931177</ele>
        <time>2026-08-27T17:25:44.429Z</time>
      </trkpt>
      <trkpt lat="50.658320" lon="5.584107">
        <ele>142.850440</ele>
        <time>2026-08-27T17:25:48.573Z</time>
      </trkpt>
      <trkpt lat="50.658321" lon="5.584272">
        <ele>143.806032</ele>
        <time>2026-08-27T17:25:52.881Z</time>
      </trkpt>
      <trkpt lat="50.658312" lon="5.584433">
        <ele>144.742034</ele>
        <time>2026-08-27T17:25:57.102Z</time>
      </trkpt>
      <trkpt lat="50.658331" lon="5.584575">
        <ele>145.582503</ele>
        <time>2026-08-27T17:26:00.891Z</time>
      </trkpt>
      <trkpt lat="50.658408" lon="5.584657">
        <ele>146.431205</ele>
        <time>2026-08-27T17:26:04.718Z</time>
      </trkpt>
      <trkpt lat="50.658401" lon="5.584802">
        <ele>147.273359</ele>
        <time>2026-08-27T17:26:08.515Z</time>
      </trkpt>
      <trkpt lat="50.658418" lon="5.584946">
        <ele>148.121628</ele>
        <time>2026-08-27T17:26:12.340Z</time>
      </trkpt>
      <trkpt lat="50.658606" lon="5.584872">
        <ele>149.891706</ele>
        <time>2026-08-27T17:26:20.323Z</time>
      </trkpt>
      <trkpt lat="50.658704" lon="5.584906">
        <ele>150.808353</ele>
        <time>2026-08-27T17:26:24.457Z</time>
      </trkpt>
      <trkpt lat="50.658798" lon="5.584906">
        <ele>151.667062</ele>
        <time>2026-08-27T17:26:28.331Z</time>
      </trkpt>
      <trkpt lat="50.658877" lon="5.584975">
        <ele>152.491983</ele>
        <time>2026-08-27T17:26:32.051Z</time>
      </trkpt>
      <trkpt lat="50.658951" lon="5.584888">
        <ele>153.335088</ele>
        <time>2026-08-27T17:26:35.854Z</time>
      </trkpt>
      <trkpt lat="50.659023" lon="5.584794">
        <ele>154.188873</ele>
        <time>2026-08-27T17:26:39.706Z</time>
      </trkpt>
      <trkpt lat="50.659068" lon="5.584655">
        <ele>155.092730</ele>
        <time>2026-08-27T17:26:43.783Z</time>
      </trkpt>
      <trkpt lat="50.659158" lon="5.584698">
        <ele>155.807865</ele>
        <time>2026-08-27T17:26:47.661Z</time>
      </trkpt>
      <trkpt lat="50.659257" lon="5.584651">
        <ele>156.531152</ele>
        <time>2026-08-27T17:26:51.923Z</time>
      </trkpt>
      <trkpt lat="50.659350" lon="5.584590">
        <ele>157.235780</ele>
        <time>2026-08-27T17:26:56.073Z</time>
      </trkpt>
      <trkpt lat="50.659428" lon="5.584512">
        <ele>157.881874</ele>
        <time>2026-08-27T17:26:59.882Z</time>
      </trkpt>
      <trkpt lat="50.659511" lon="5.584456">
        <ele>158.513422</ele>
        <time>2026-08-27T17:27:03.603Z</time>
      </trkpt>
      <trkpt lat="50.659578" lon="5.584346">
        <ele>159.189956</ele>
        <time>2026-08-27T17:27:07.591Z</time>
      </trkpt>
      <trkpt lat="50.659563" lon="5.584188">
        <ele>159.898489</ele>
        <time>2026-08-27T17:27:11.768Z</time>
      </trkpt>
      <trkpt lat="50.659525" lon="5.583892">
        <ele>161.237878</ele>
        <time>2026-08-27T17:27:19.656Z</time>
      </trkpt>
      <trkpt lat="50.659615" lon="5.583835">
        <ele>161.916366</ele>
        <time>2026-08-27T17:27:23.651Z</time>
      </trkpt>
      <trkpt lat="50.659712" lon="5.583900">
        <ele>162.653664</ele>
        <time>2026-08-27T17:27:27.987Z</time>
      </trkpt>
      <trkpt lat="50.659689" lon="5.583973">
        <ele>163.015195</ele>
        <time>2026-08-27T17:27:30.124Z</time>
      </trkpt>
      <trkpt lat="50.659773" lon="5.584039">
        <ele>163.671718</ele>
        <time>2026-08-27T17:27:35.058Z</time>
      </trkpt>
      <trkpt lat="50.659964" lon="5.584075">
        <ele>165.017452</ele>
        <time>2026-08-27T17:27:45.326Z</time>
      </trkpt>
      <trkpt lat="50.660126" lon="5.583998">
        <ele>166.201127</ele>
        <time>2026-08-27T17:27:53.756Z</time>
      </trkpt>
      <trkpt lat="50.660268" lon="5.583840">
        <ele>167.416813</ele>
        <time>2026-08-27T17:28:01.864Z</time>
      </trkpt>
      <trkpt lat="50.660203" lon="5.583636">
        <ele>167.673814</ele>
        <time>2026-08-27T17:28:09.382Z</time>
      </trkpt>
      <trkpt lat="50.660116" lon="5.583396">
        <ele>167.079597</ele>
        <time>2026-08-27T17:28:18.069Z</time>
      </trkpt>
      <trkpt lat="50.659828" lon="5.582838">
        <ele>165.533036</ele>
        <time>2026-08-27T17:28:39.133Z</time>
      </trkpt>
      <trkpt lat="50.659483" lon="5.582052">
        <ele>163.478227</ele>
        <time>2026-08-27T17:29:04.783Z</time>
      </trkpt>
      <trkpt lat="50.659464" lon="5.581029">
        <ele>161.661132</ele>
        <time>2026-08-27T17:29:31.632Z</time>
      </trkpt>
      <trkpt lat="50.659411" lon="5.580672">
        <ele>161.427723</ele>
        <time>2026-08-27T17:29:41.356Z</time>
      </trkpt>
      <trkpt lat="50.659392" lon="5.580352">
        <ele>161.223126</ele>
        <time>2026-08-27T17:29:49.984Z</time>
      </trkpt>
      <trkpt lat="50.659370" lon="5.579049">
        <ele>160.393365</ele>
        <time>2026-08-27T17:30:29.051Z</time>
      </trkpt>
      <trkpt lat="50.659460" lon="5.578789">
        <ele>160.204786</ele>
        <time>2026-08-27T17:30:39.762Z</time>
      </trkpt>
      <trkpt lat="50.659586" lon="5.578746">
        <ele>160.075332</ele>
        <time>2026-08-27T17:30:47.538Z</time>
      </trkpt>
      <trkpt lat="50.659656" lon="5.578816">
        <ele>160.171787</ele>
        <time>2026-08-27T17:30:52.848Z</time>
      </trkpt>
      <trkpt lat="50.659706" lon="5.579333">
        <ele>162.345231</ele>
        <time>2026-08-27T17:31:14.260Z</time>
      </trkpt>
      <trkpt lat="50.659841" lon="5.580135">
        <ele>165.793734</ele>
        <time>2026-08-27T17:31:51.593Z</time>
      </trkpt>
      <trkpt lat="50.659852" lon="5.580198">
        <ele>166.065303</ele>
        <time>2026-08-27T17:31:54.804Z</time>
      </trkpt>
      <trkpt lat="50.659938" lon="5.580430">
        <ele>167.182203</ele>
        <time>2026-08-27T17:32:07.317Z</time>
      </trkpt>
      <trkpt lat="50.660007" lon="5.581165">
        <ele>170.270061</ele>
        <time>2026-08-27T17:32:38.268Z</time>
      </trkpt>
      <trkpt lat="50.660060" lon="5.581254">
        <ele>170.777534</ele>
        <time>2026-08-27T17:32:43.053Z</time>
      </trkpt>
      <trkpt lat="50.660184" lon="5.581418">
        <ele>171.821768</ele>
        <time>2026-08-27T17:32:52.609Z</time>
      </trkpt>
      <trkpt lat="50.660397" lon="5.581482">
        <ele>172.479833</ele>
        <time>2026-08-27T17:33:04.790Z</time>
      </trkpt>
      <trkpt lat="50.660545" lon="5.581430">
        <ele>172.940010</ele>
        <time>2026-08-27T17:33:12.967Z</time>
      </trkpt>
      <trkpt lat="50.660636" lon="5.581398">
        <ele>173.222969</ele>
        <time>2026-08-27T17:33:17.916Z</time>
      </trkpt>
      <trkpt lat="50.660873" lon="5.581261">
        <ele>173.989020</ele>
        <time>2026-08-27T17:33:31.364Z</time>
      </trkpt>
      <trkpt lat="50.660904" lon="5.581243">
        <ele>174.089274</ele>
        <time>2026-08-27T17:33:33.133Z</time>
      </trkpt>
      <trkpt lat="50.661342" lon="5.581166">
        <ele>175.426807</ele>
        <time>2026-08-27T17:33:56.641Z</time>
      </trkpt>
      <trkpt lat="50.661475" lon="5.581119">
        <ele>175.840458</ele>
        <time>2026-08-27T17:34:03.909Z</time>
      </trkpt>
      <trkpt lat="50.661506" lon="5.581013">
        <ele>176.065043</ele>
        <time>2026-08-27T17:34:07.242Z</time>
      </trkpt>
      <trkpt lat="50.661815" lon="5.580882">
        <ele>177.036114</ele>
        <time>2026-08-27T17:34:21.739Z</time>
      </trkpt>
      <trkpt lat="50.661988" lon="5.580739">
        <ele>177.325332</ele>
        <time>2026-08-27T17:34:30.575Z</time>
      </trkpt>
      <trkpt lat="50.662370" lon="5.580226">
        <ele>177.573426</ele>
        <time>2026-08-27T17:34:52.734Z</time>
      </trkpt>
      <trkpt lat="50.662614" lon="5.579987">
        <ele>177.715461</ele>
        <time>2026-08-27T17:35:05.008Z</time>
      </trkpt>
      <trkpt lat="50.662967" lon="5.579760">
        <ele>177.903979</ele>
        <time>2026-08-27T17:35:20.704Z</time>
      </trkpt>
      <trkpt lat="50.663329" lon="5.579663">
        <ele>178.085566</ele>
        <time>2026-08-27T17:35:35.642Z</time>
      </trkpt>
      <trkpt lat="50.663881" lon="5.579278">
        <ele>176.685166</ele>
        <time>2026-08-27T17:35:59.190Z</time>
      </trkpt>
      <trkpt lat="50.664239" lon="5.579008">
        <ele>175.421123</ele>
        <time>2026-08-27T17:36:14.033Z</time>
      </trkpt>
      <trkpt lat="50.664274" lon="5.578951">
        <ele>175.260880</ele>
        <time>2026-08-27T17:36:15.896Z</time>
      </trkpt>
      <trkpt lat="50.664311" lon="5.578969">
        <ele>175.137538</ele>
        <time>2026-08-27T17:36:17.331Z</time>
      </trkpt>
      <trkpt lat="50.664274" lon="5.578951">
        <ele>175.014196</ele>
        <time>2026-08-27T17:36:18.743Z</time>
      </trkpt>
      <trkpt lat="50.663101" lon="5.578121">
        <ele>172.133978</ele>
        <time>2026-08-27T17:37:15.382Z</time>
      </trkpt>
      <trkpt lat="50.662975" lon="5.577988">
        <ele>172.040383</ele>
        <time>2026-08-27T17:37:22.581Z</time>
      </trkpt>
      <trkpt lat="50.662869" lon="5.578098">
        <ele>171.962053</ele>
        <time>2026-08-27T17:37:28.815Z</time>
      </trkpt>
      <trkpt lat="50.662694" lon="5.578214">
        <ele>171.844863</ele>
        <time>2026-08-27T17:37:38.277Z</time>
      </trkpt>
      <trkpt lat="50.662667" lon="5.578251">
        <ele>171.822784</ele>
        <time>2026-08-27T17:37:40.130Z</time>
      </trkpt>
      <trkpt lat="50.662722" lon="5.578398">
        <ele>171.755983</ele>
        <time>2026-08-27T17:37:45.514Z</time>
      </trkpt>
      <trkpt lat="50.662704" lon="5.578637">
        <ele>171.661795</ele>
        <time>2026-08-27T17:37:53.150Z</time>
      </trkpt>
      <trkpt lat="50.662570" lon="5.578796">
        <ele>171.558279</ele>
        <time>2026-08-27T17:38:01.572Z</time>
      </trkpt>
      <trkpt lat="50.662136" lon="5.579164">
        <ele>170.956632</ele>
        <time>2026-08-27T17:38:27.194Z</time>
      </trkpt>
      <trkpt lat="50.662207" lon="5.578971">
        <ele>170.447302</ele>
        <time>2026-08-27T17:38:34.302Z</time>
      </trkpt>
      <trkpt lat="50.662213" lon="5.578679">
        <ele>169.780466</ele>
        <time>2026-08-27T17:38:43.168Z</time>
      </trkpt>
      <trkpt lat="50.662044" lon="5.578317">
        <ele>168.754301</ele>
        <time>2026-08-27T17:38:56.238Z</time>
      </trkpt>
      <trkpt lat="50.661939" lon="5.578222">
        <ele>168.318454</ele>
        <time>2026-08-27T17:39:01.644Z</time>
      </trkpt>
      <trkpt lat="50.661972" lon="5.578128">
        <ele>168.073193</ele>
        <time>2026-08-27T17:39:04.623Z</time>
      </trkpt>
      <trkpt lat="50.661952" lon="5.578052">
        <ele>167.885368</ele>
        <time>2026-08-27T17:39:06.913Z</time>
      </trkpt>
      <trkpt lat="50.661925" lon="5.577949">
        <ele>167.630962</ele>
        <time>2026-08-27T17:39:09.961Z</time>
      </trkpt>
      <trkpt lat="50.661801" lon="5.577898">
        <ele>167.169543</ele>
        <time>2026-08-27T17:39:15.449Z</time>
      </trkpt>
      <trkpt lat="50.661634" lon="5.577568">
        <ele>166.205724</ele>
        <time>2026-08-27T17:39:26.779Z</time>
      </trkpt>
      <trkpt lat="50.661209" lon="5.577107">
        <ele>163.585563</ele>
        <time>2026-08-27T17:39:48.426Z</time>
      </trkpt>
      <trkpt lat="50.660888" lon="5.577008">
        <ele>160.576304</ele>
        <time>2026-08-27T17:40:01.180Z</time>
      </trkpt>
      <trkpt lat="50.660608" lon="5.576968">
        <ele>157.989635</ele>
        <time>2026-08-27T17:40:11.892Z</time>
      </trkpt>
      <trkpt lat="50.660515" lon="5.576971">
        <ele>157.133813</ele>
        <time>2026-08-27T17:40:15.450Z</time>
      </trkpt>
      <trkpt lat="50.660258" lon="5.576827">
        <ele>154.624571</ele>
        <time>2026-08-27T17:40:24.410Z</time>
      </trkpt>
      <trkpt lat="50.659900" lon="5.576531">
        <ele>150.905801</ele>
        <time>2026-08-27T17:40:37.774Z</time>
      </trkpt>
      <trkpt lat="50.659916" lon="5.576385">
        <ele>150.041643</ele>
        <time>2026-08-27T17:40:40.917Z</time>
      </trkpt>
      <trkpt lat="50.660068" lon="5.576234">
        <ele>148.388971</ele>
        <time>2026-08-27T17:40:46.903Z</time>
      </trkpt>
      <trkpt lat="50.660324" lon="5.575984">
        <ele>147.627515</ele>
        <time>2026-08-27T17:40:56.977Z</time>
      </trkpt>
      <trkpt lat="50.660373" lon="5.575448">
        <ele>146.843429</ele>
        <time>2026-08-27T17:41:08.997Z</time>
      </trkpt>
      <trkpt lat="50.659393" lon="5.574762">
        <ele>144.394626</ele>
        <time>2026-08-27T17:42:00.954Z</time>
      </trkpt>
      <trkpt lat="50.659444" lon="5.574392">
        <ele>145.148679</ele>
        <time>2026-08-27T17:42:14.745Z</time>
      </trkpt>
      <trkpt lat="50.659441" lon="5.574332">
        <ele>145.398958</ele>
        <time>2026-08-27T17:42:16.962Z</time>
      </trkpt>
      <trkpt lat="50.659420" lon="5.574171">
        <ele>146.082487</ele>
        <time>2026-08-27T17:42:23.223Z</time>
      </trkpt>
      <trkpt lat="50.659381" lon="5.574071">
        <ele>146.570722</ele>
        <time>2026-08-27T17:42:27.679Z</time>
      </trkpt>
      <trkpt lat="50.659391" lon="5.573556">
        <ele>148.713310</ele>
        <time>2026-08-27T17:42:45.266Z</time>
      </trkpt>
      <trkpt lat="50.659436" lon="5.573082">
        <ele>150.706378</ele>
        <time>2026-08-27T17:43:02.354Z</time>
      </trkpt>
      <trkpt lat="50.659610" lon="5.572036">
        <ele>155.203330</ele>
        <time>2026-08-27T17:43:43.708Z</time>
      </trkpt>
      <trkpt lat="50.659498" lon="5.571915">
        <ele>156.096906</ele>
        <time>2026-08-27T17:43:49.266Z</time>
      </trkpt>
      <trkpt lat="50.659609" lon="5.571471">
        <ele>158.136336</ele>
        <time>2026-08-27T17:44:01.725Z</time>
      </trkpt>
      <trkpt lat="50.659388" lon="5.570882">
        <ele>161.060970</ele>
        <time>2026-08-27T17:44:19.580Z</time>
      </trkpt>
      <trkpt lat="50.659149" lon="5.570728">
        <ele>162.801183</ele>
        <time>2026-08-27T17:44:30.200Z</time>
      </trkpt>
      <trkpt lat="50.658837" lon="5.570969">
        <ele>165.142843</ele>
        <time>2026-08-27T17:44:44.489Z</time>
      </trkpt>
      <trkpt lat="50.658290" lon="5.571014">
        <ele>168.447381</ele>
        <time>2026-08-27T17:45:07.004Z</time>
      </trkpt>
      <trkpt lat="50.658142" lon="5.571040">
        <ele>168.918018</ele>
        <time>2026-08-27T17:45:13.122Z</time>
      </trkpt>
      <trkpt lat="50.658044" lon="5.570923">
        <ele>169.306449</ele>
        <time>2026-08-27T17:45:18.170Z</time>
      </trkpt>
      <trkpt lat="50.657914" lon="5.570581">
        <ele>170.105401</ele>
        <time>2026-08-27T17:45:28.555Z</time>
      </trkpt>
      <trkpt lat="50.657846" lon="5.570651">
        <ele>170.362025</ele>
        <time>2026-08-27T17:45:32.298Z</time>
      </trkpt>
      <trkpt lat="50.657676" lon="5.570745">
        <ele>170.931353</ele>
        <time>2026-08-27T17:45:40.579Z</time>
      </trkpt>
      <trkpt lat="50.657536" lon="5.570776">
        <ele>171.378153</ele>
        <time>2026-08-27T17:45:47.005Z</time>
      </trkpt>
      <trkpt lat="50.657480" lon="5.570788">
        <ele>171.556763</ele>
        <time>2026-08-27T17:45:49.602Z</time>
      </trkpt>
      <trkpt lat="50.656849" lon="5.570534">
        <ele>173.614911</ele>
        <time>2026-08-27T17:46:18.764Z</time>
      </trkpt>
      <trkpt lat="50.656801" lon="5.570433">
        <ele>173.789750</ele>
        <time>2026-08-27T17:46:22.312Z</time>
      </trkpt>
      <trkpt lat="50.657349" lon="5.569682">
        <ele>173.789750</ele>
        <time>2026-08-27T17:46:55.113Z</time>
      </trkpt>
      <trkpt lat="50.657607" lon="5.569316">
        <ele>173.789750</ele>
        <time>2026-08-27T17:47:10.661Z</time>
      </trkpt>
      <trkpt lat="50.657719" lon="5.569167">
        <ele>173.789750</ele>
        <time>2026-08-27T17:47:17.169Z</time>
      </trkpt>
    </trkseg>
  </trk>
</gpx>